Luanda, Angola

7:57 AM WAT on October 26, 2014 (GMT +0100)
4th Of February | Change Station
CLOSE
Current Station
Airport
Location: Luanda,
Elevation: 243 ft
Nearby Weather Stations

Elev 243 ft 8.86 °S, 13.23 °E | Updated 57 minutes ago

Mostly Cloudy
Mostly Cloudy
77 °F
Feels Like 77 °F
N
7
Wind Variable Wind from South

Today
High -- | Low -- °F
--% Chance of Precip.
Yesterday
High -- | Low -- °F
Precip. -- in
5:39 AM 6:02 PM
Waxing Crescent, 6% visible
Pressure 29.92 in
Visibility 6.2 miles
Clouds Few 1900 ft
Mostly Cloudy 2200 ft
Dew Point 70 °F
Humidity 78%
Rainfall 0.00 in
Snow Depth Not available.
UV 1 out of 12
Pollen Not available.
Air Quality Not available.
Flu Activity Not available.
METAR FNLU 260600Z 18006KT 9999 FEW019 BKN022 25/21 Q1013 NOSIG

More Conditions Fewer Conditions

Pressure 29.92 in
Visibility 6.2 miles
Clouds Few 1900 ft
Mostly Cloudy 2200 ft
Dew Point 70 °F
Humidity 78%
Rainfall 0.00 in
Snow Depth Not available.
UV 1 out of 12
Pollen Not available.
Air Quality Not available.
Flu Activity Not available.
METAR FNLU 260600Z 18006KT 9999 FEW019 BKN022 25/21 Q1013 NOSIG

More Conditions Fewer Conditions

10-Day Weather Forecast

Almanac

Astronomy

Oct. 26, 2014 Rise Set
Actual Time 5:39 AM WAT 6:02 PM WAT
Civil Twilight 5:18 AM WAT 6:23 PM WAT
Nautical Twilight 4:53 AM WAT 6:48 PM WAT
Astronomical Twilight 4:28 AM WAT 7:14 PM WAT
Moon 7:37 AM WAT 8:25 PM WAT
Length of Visible Light 13h 05m
Length of Day
12h 22m
Tomorrow will be 0m 27s longer.
Waxing Crescent, 6% of the Moon is Illuminated
Today
Waxing Crescent
Oct 30
First Quarter
Nov 6
Full
Nov 14
Last Quarter
Nov 22
New

Yesterday's Extremes

Country Highs Country Lows

Community

WunderPhotos

Upload Photos

1,765,117 photos uploaded!

Nearby

Snow Depth

Not available.

Earthquake Activity

City Distance Mag. Time & Date
No recent earthquake activity has been reported nearby.
Minimum magnitude displayed is 2.5.

Coastal Water Temperatures

Place Temperature
No Stations Reporting

Nearby Weather Stations